sensor_id;sensor_type;location;lat;lon;timestamp;P1;durP1;ratioP1;P2;durP2;ratioP2
24867;SDS011;12941;48.698;9.310;2024-02-28T00:00:07;20.3;;;14.9;;
24867;SDS011;12941;48.698;9.310;2024-02-28T00:01:12;20.2;;;14.8;;
24867;SDS011;12941;48.698;9.310;2024-02-28T00:02:12;20.2;;;14.8;;
24867;SDS011;12941;48.698;9.310;2024-02-28T00:03:17;20.2;;;14.8;;
24867;SDS011;12941;48.698;9.310;2024-02-28T00:04:22;20.2;;;14.8;;
24867;SDS011;12941;48.698;9.310;2024-02-28T00:05:22;21.1;;;14.4;;
24867;SDS011;12941;48.698;9.310;2024-02-28T00:06:27;21.1;;;14.4;;
24867;SDS011;12941;48.698;9.310;2024-02-28T00:07:27;21.1;;;14.4;;
24867;SDS011;12941;48.698;9.310;2024-02-28T00:08:27;21.1;;;14.4;;
24867;SDS011;12941;48.698;9.310;2024-02-28T00:09:32;21.1;;;14.4;;
24867;SDS011;12941;48.698;9.310;2024-02-28T00:10:32;19.4;;;14.1;;
24867;SDS011;12941;48.698;9.310;2024-02-28T00:11:32;19.4;;;14.1;;
24867;SDS011;12941;48.698;9.310;2024-02-28T00:12:38;19.4;;;14.1;;
24867;SDS011;12941;48.698;9.310;2024-02-28T00:13:37;19.4;;;14.1;;
24867;SDS011;12941;48.698;9.310;2024-02-28T00:14:42;19.4;;;14.1;;
24867;SDS011;12941;48.698;9.310;2024-02-28T00:15:42;20.1;;;14.3;;
24867;SDS011;12941;48.698;9.310;2024-02-28T00:16:42;20.1;;;14.3;;
24867;SDS011;12941;48.698;9.310;2024-02-28T00:17:42;20.1;;;14.3;;
24867;SDS011;12941;48.698;9.310;2024-02-28T00:18:42;20.1;;;14.3;;
24867;SDS011;12941;48.698;9.310;2024-02-28T00:19:47;20.1;;;14.3;;
24867;SDS011;12941;48.698;9.310;2024-02-28T00:20:47;20.6;;;14.2;;
24867;SDS011;12941;48.698;9.310;2024-02-28T00:21:52;20.6;;;14.2;;
24867;SDS011;12941;48.698;9.310;2024-02-28T00:22:57;20.6;;;14.2;;
24867;SDS011;12941;48.698;9.310;2024-02-28T00:24:02;20.6;;;14.2;;
24867;SDS011;12941;48.698;9.310;2024-02-28T00:25:07;17.7;;;13.6;;
24867;SDS011;12941;48.698;9.310;2024-02-28T00:26:12;17.6;;;13.6;;
24867;SDS011;12941;48.698;9.310;2024-02-28T00:27:17;17.6;;;13.6;;
24867;SDS011;12941;48.698;9.310;2024-02-28T00:28:17;17.6;;;13.6;;
24867;SDS011;12941;48.698;9.310;2024-02-28T00:29:22;17.6;;;13.6;;
24867;SDS011;12941;48.698;9.310;2024-02-28T00:30:27;22;;;14.6;;
24867;SDS011;12941;48.698;9.310;2024-02-28T00:31:27;22;;;14.6;;
24867;SDS011;12941;48.698;9.310;2024-02-28T00:32:27;22;;;14.6;;
24867;SDS011;12941;48.698;9.310;2024-02-28T00:33:32;22;;;14.6;;
24867;SDS011;12941;48.698;9.310;2024-02-28T00:34:37;22;;;14.6;;
24867;SDS011;12941;48.698;9.310;2024-02-28T00:35:37;20.1;;;14.7;;
24867;SDS011;12941;48.698;9.310;2024-02-28T00:36:37;20.1;;;14.7;;
24867;SDS011;12941;48.698;9.310;2024-02-28T00:37:37;20.1;;;14.7;;
24867;SDS011;12941;48.698;9.310;2024-02-28T00:38:42;20.1;;;14.7;;
24867;SDS011;12941;48.698;9.310;2024-02-28T00:39:47;20.1;;;14.7;;
24867;SDS011;12941;48.698;9.310;2024-02-28T00:40:52;20.4;;;14.2;;
24867;SDS011;12941;48.698;9.310;2024-02-28T00:41:57;20.4;;;14.2;;
24867;SDS011;12941;48.698;9.310;2024-02-28T00:42:57;20.4;;;14.2;;
24867;SDS011;12941;48.698;9.310;2024-02-28T00:44:02;20.4;;;14.2;;
24867;SDS011;12941;48.698;9.310;2024-02-28T00:45:02;20.4;;;14.2;;
24867;SDS011;12941;48.698;9.310;2024-02-28T00:46:02;19.2;;;14.1;;
24867;SDS011;12941;48.698;9.310;2024-02-28T00:47:07;19.2;;;14.1;;
24867;SDS011;12941;48.698;9.310;2024-02-28T00:48:07;19.2;;;14.1;;
24867;SDS011;12941;48.698;9.310;2024-02-28T00:49:07;19.2;;;14.1;;
24867;SDS011;12941;48.698;9.310;2024-02-28T00:50:07;22.5;;;15.2;;
24867;SDS011;12941;48.698;9.310;2024-02-28T00:51:12;22.5;;;15.2;;
24867;SDS011;12941;48.698;9.310;2024-02-28T00:52:17;22.5;;;15.2;;
24867;SDS011;12941;48.698;9.310;2024-02-28T00:53:22;22.5;;;15.2;;
24867;SDS011;12941;48.698;9.310;2024-02-28T00:54:22;22.5;;;15.2;;
24867;SDS011;12941;48.698;9.310;2024-02-28T00:55:27;20.4;;;14.5;;
24867;SDS011;12941;48.698;9.310;2024-02-28T00:56:27;20.4;;;14.5;;
24867;SDS011;12941;48.698;9.310;2024-02-28T00:57:32;20.4;;;14.5;;
24867;SDS011;12941;48.698;9.310;2024-02-28T00:58:32;20.4;;;14.5;;
24867;SDS011;12941;48.698;9.310;2024-02-28T00:59:32;20.4;;;14.5;;
24867;SDS011;12941;48.698;9.310;2024-02-28T01:00:37;20.8;;;14.9;;
24867;SDS011;12941;48.698;9.310;2024-02-28T01:01:37;20.8;;;14.9;;
24867;SDS011;12941;48.698;9.310;2024-02-28T01:02:42;20.8;;;14.9;;
24867;SDS011;12941;48.698;9.310;2024-02-28T01:03:47;20.8;;;14.9;;
24867;SDS011;12941;48.698;9.310;2024-02-28T01:04:52;20.8;;;14.9;;
24867;SDS011;12941;48.698;9.310;2024-02-28T01:05:52;18.1;;;13.8;;
24867;SDS011;12941;48.698;9.310;2024-02-28T01:06:57;18.1;;;13.8;;
24867;SDS011;12941;48.698;9.310;2024-02-28T01:07:57;18.1;;;13.8;;
24867;SDS011;12941;48.698;9.310;2024-02-28T01:09:02;18.1;;;13.8;;
24867;SDS011;12941;48.698;9.310;2024-02-28T01:10:02;18.1;;;13.8;;
24867;SDS011;12941;48.698;9.310;2024-02-28T01:11:02;19.4;;;14.7;;
24867;SDS011;12941;48.698;9.310;2024-02-28T01:12:02;19.4;;;14.7;;
24867;SDS011;12941;48.698;9.310;2024-02-28T01:13:07;19.4;;;14.7;;
24867;SDS011;12941;48.698;9.310;2024-02-28T01:14:07;19.4;;;14.7;;
24867;SDS011;12941;48.698;9.310;2024-02-28T01:15:10;20.2;;;14.5;;
24867;SDS011;12941;48.698;9.310;2024-02-28T01:16:12;20.2;;;14.5;;
24867;SDS011;12941;48.698;9.310;2024-02-28T01:17:12;20.2;;;14.5;;
24867;SDS011;12941;48.698;9.310;2024-02-28T01:18:12;20.2;;;14.5;;
24867;SDS011;12941;48.698;9.310;2024-02-28T01:19:17;20.2;;;14.5;;
24867;SDS011;12941;48.698;9.310;2024-02-28T01:20:22;21.1;;;14.4;;
24867;SDS011;12941;48.698;9.310;2024-02-28T01:21:22;21.1;;;14.4;;
24867;SDS011;12941;48.698;9.310;2024-02-28T01:22:27;21.1;;;14.4;;
24867;SDS011;12941;48.698;9.310;2024-02-28T01:23:32;21.1;;;14.4;;
24867;SDS011;12941;48.698;9.310;2024-02-28T01:24:32;21.1;;;14.4;;
24867;SDS011;12941;48.698;9.310;2024-02-28T01:25:32;22.7;;;14.9;;
24867;SDS011;12941;48.698;9.310;2024-02-28T01:26:37;22.7;;;14.9;;
24867;SDS011;12941;48.698;9.310;2024-02-28T01:27:42;22.7;;;14.9;;
24867;SDS011;12941;48.698;9.310;2024-02-28T01:28:42;22.7;;;14.9;;
24867;SDS011;12941;48.698;9.310;2024-02-28T01:29:47;22.7;;;14.9;;
24867;SDS011;12941;48.698;9.310;2024-02-28T01:30:52;22.2;;;15.6;;
24867;SDS011;12941;48.698;9.310;2024-02-28T01:31:57;22.2;;;15.6;;
24867;SDS011;12941;48.698;9.310;2024-02-28T01:32:57;22.2;;;15.6;;
24867;SDS011;12941;48.698;9.310;2024-02-28T01:34:02;22.2;;;15.6;;
24867;SDS011;12941;48.698;9.310;2024-02-28T01:35:08;21.5;;;16.2;;
24867;SDS011;12941;48.698;9.310;2024-02-28T01:36:12;21.4;;;16.2;;
24867;SDS011;12941;48.698;9.310;2024-02-28T01:37:17;21.4;;;16.2;;
24867;SDS011;12941;48.698;9.310;2024-02-28T01:38:17;21.4;;;16.2;;
24867;SDS011;12941;48.698;9.310;2024-02-28T01:39:17;21.4;;;16.2;;
24867;SDS011;12941;48.698;9.310;2024-02-28T01:40:22;19.7;;;14.7;;
24867;SDS011;12941;48.698;9.310;2024-02-28T01:41:27;19.7;;;14.7;;
24867;SDS011;12941;48.698;9.310;2024-02-28T01:42:32;19.7;;;14.7;;
24867;SDS011;12941;48.698;9.310;2024-02-28T01:43:37;19.7;;;14.7;;
24867;SDS011;12941;48.698;9.310;2024-02-28T01:44:40;19.7;;;14.7;;
24867;SDS011;12941;48.698;9.310;2024-02-28T01:45:42;21.5;;;15.8;;
24867;SDS011;12941;48.698;9.310;2024-02-28T01:46:42;21.5;;;15.8;;
24867;SDS011;12941;48.698;9.310;2024-02-28T01:47:47;21.5;;;15.8;;
24867;SDS011;12941;48.698;9.310;2024-02-28T01:48:47;21.5;;;15.8;;
24867;SDS011;12941;48.698;9.310;2024-02-28T01:49:52;21.5;;;15.8;;
24867;SDS011;12941;48.698;9.310;2024-02-28T01:50:57;22.2;;;15.8;;
24867;SDS011;12941;48.698;9.310;2024-02-28T01:51:57;22.2;;;15.8;;
24867;SDS011;12941;48.698;9.310;2024-02-28T01:52:57;22.2;;;15.8;;
24867;SDS011;12941;48.698;9.310;2024-02-28T01:54:02;22.2;;;15.8;;
24867;SDS011;12941;48.698;9.310;2024-02-28T01:55:03;22.2;;;15.8;;
24867;SDS011;12941;48.698;9.310;2024-02-28T01:56:07;24.1;;;16.2;;
24867;SDS011;12941;48.698;9.310;2024-02-28T01:57:13;24.1;;;16.2;;
24867;SDS011;12941;48.698;9.310;2024-02-28T01:58:17;24.1;;;16.2;;
24867;SDS011;12941;48.698;9.310;2024-02-28T01:59:17;24.1;;;16.2;;
24867;SDS011;12941;48.698;9.310;2024-02-28T02:00:17;20.8;;;15.3;;
24867;SDS011;12941;48.698;9.310;2024-02-28T02:01:22;20.8;;;15.3;;
24867;SDS011;12941;48.698;9.310;2024-02-28T02:02:23;20.8;;;15.3;;
24867;SDS011;12941;48.698;9.310;2024-02-28T02:03:27;20.8;;;15.3;;
24867;SDS011;12941;48.698;9.310;2024-02-28T02:04:27;20.8;;;15.3;;
24867;SDS011;12941;48.698;9.310;2024-02-28T02:05:32;22.5;;;15.8;;
24867;SDS011;12941;48.698;9.310;2024-02-28T02:06:38;22.5;;;15.8;;
24867;SDS011;12941;48.698;9.310;2024-02-28T02:07:37;22.5;;;15.8;;
24867;SDS011;12941;48.698;9.310;2024-02-28T02:08:42;22.5;;;15.8;;
24867;SDS011;12941;48.698;9.310;2024-02-28T02:09:43;22.5;;;15.8;;
24867;SDS011;12941;48.698;9.310;2024-02-28T02:10:43;23.2;;;15.5;;
24867;SDS011;12941;48.698;9.310;2024-02-28T02:11:48;23.2;;;15.5;;
24867;SDS011;12941;48.698;9.310;2024-02-28T02:12:53;23.2;;;15.5;;
24867;SDS011;12941;48.698;9.310;2024-02-28T02:13:58;23.2;;;15.5;;
24867;SDS011;12941;48.698;9.310;2024-02-28T02:15:03;23.2;;;15.5;;
24867;SDS011;12941;48.698;9.310;2024-02-28T02:16:03;19.3;;;14.8;;
24867;SDS011;12941;48.698;9.310;2024-02-28T02:17:07;19.3;;;14.8;;
24867;SDS011;12941;48.698;9.310;2024-02-28T02:18:13;19.3;;;14.8;;
24867;SDS011;12941;48.698;9.310;2024-02-28T02:19:13;19.3;;;14.8;;
24867;SDS011;12941;48.698;9.310;2024-02-28T02:20:14;22.3;;;15.2;;
24867;SDS011;12941;48.698;9.310;2024-02-28T02:21:13;22.3;;;15.2;;
24867;SDS011;12941;48.698;9.310;2024-02-28T02:22:13;22.3;;;15.2;;
24867;SDS011;12941;48.698;9.310;2024-02-28T02:23:17;22.3;;;15.2;;
24867;SDS011;12941;48.698;9.310;2024-02-28T02:24:17;22.3;;;15.2;;
24867;SDS011;12941;48.698;9.310;2024-02-28T02:25:17;21.5;;;15.9;;
24867;SDS011;12941;48.698;9.310;2024-02-28T02:26:23;21.5;;;15.9;;
24867;SDS011;12941;48.698;9.310;2024-02-28T02:27:23;21.5;;;15.9;;
24867;SDS011;12941;48.698;9.310;2024-02-28T02:28:28;21.5;;;15.9;;
24867;SDS011;12941;48.698;9.310;2024-02-28T02:29:28;21.5;;;15.9;;
24867;SDS011;12941;48.698;9.310;2024-02-28T02:30:33;21.7;;;15.6;;
24867;SDS011;12941;48.698;9.310;2024-02-28T02:31:33;21.7;;;15.6;;
24867;SDS011;12941;48.698;9.310;2024-02-28T02:32:38;21.7;;;15.6;;
24867;SDS011;12941;48.698;9.310;2024-02-28T02:33:38;21.7;;;15.6;;
24867;SDS011;12941;48.698;9.310;2024-02-28T02:34:38;21.7;;;15.6;;
24867;SDS011;12941;48.698;9.310;2024-02-28T02:35:43;19.2;;;14.8;;
24867;SDS011;12941;48.698;9.310;2024-02-28T02:36:43;19.2;;;14.8;;
24867;SDS011;12941;48.698;9.310;2024-02-28T02:37:43;19.2;;;14.8;;
24867;SDS011;12941;48.698;9.310;2024-02-28T02:38:48;19.2;;;14.8;;
24867;SDS011;12941;48.698;9.310;2024-02-28T02:39:53;19.2;;;14.8;;
24867;SDS011;12941;48.698;9.310;2024-02-28T02:40:57;22.7;;;15.9;;
24867;SDS011;12941;48.698;9.310;2024-02-28T02:42:03;22.7;;;15.9;;
24867;SDS011;12941;48.698;9.310;2024-02-28T02:43:08;22.7;;;15.9;;
24867;SDS011;12941;48.698;9.310;2024-02-28T02:44:08;22.7;;;15.9;;
24867;SDS011;12941;48.698;9.310;2024-02-28T02:45:08;21.9;;;16.3;;
24867;SDS011;12941;48.698;9.310;2024-02-28T02:46:13;21.9;;;16.3;;
24867;SDS011;12941;48.698;9.310;2024-02-28T02:47:18;21.9;;;16.3;;
24867;SDS011;12941;48.698;9.310;2024-02-28T02:48:18;21.9;;;16.3;;
24867;SDS011;12941;48.698;9.310;2024-02-28T02:49:18;21.9;;;16.3;;
24867;SDS011;12941;48.698;9.310;2024-02-28T02:50:23;20.1;;;15.4;;
24867;SDS011;12941;48.698;9.310;2024-02-28T02:51:28;20.1;;;15.4;;
24867;SDS011;12941;48.698;9.310;2024-02-28T02:52:33;20.1;;;15.4;;
24867;SDS011;12941;48.698;9.310;2024-02-28T02:53:38;20.1;;;15.4;;
24867;SDS011;12941;48.698;9.310;2024-02-28T02:54:38;20.1;;;15.4;;
24867;SDS011;12941;48.698;9.310;2024-02-28T02:55:43;21.7;;;15.7;;
24867;SDS011;12941;48.698;9.310;2024-02-28T02:56:43;21.7;;;15.7;;
24867;SDS011;12941;48.698;9.310;2024-02-28T02:57:43;21.7;;;15.7;;
24867;SDS011;12941;48.698;9.310;2024-02-28T02:58:48;21.7;;;15.7;;
24867;SDS011;12941;48.698;9.310;2024-02-28T02:59:53;21.7;;;15.7;;
24867;SDS011;12941;48.698;9.310;2024-02-28T03:00:53;21.1;;;15.5;;
24867;SDS011;12941;48.698;9.310;2024-02-28T03:01:58;21.1;;;15.5;;
24867;SDS011;12941;48.698;9.310;2024-02-28T03:02:58;21.1;;;15.5;;
24867;SDS011;12941;48.698;9.310;2024-02-28T03:03:58;21.1;;;15.5;;
24867;SDS011;12941;48.698;9.310;2024-02-28T03:05:03;21.1;;;15.5;;
24867;SDS011;12941;48.698;9.310;2024-02-28T03:06:08;21.8;;;15.6;;
24867;SDS011;12941;48.698;9.310;2024-02-28T03:07:13;21.8;;;15.6;;
24867;SDS011;12941;48.698;9.310;2024-02-28T03:08:18;21.8;;;15.6;;
24867;SDS011;12941;48.698;9.310;2024-02-28T03:09:18;21.8;;;15.6;;
24867;SDS011;12941;48.698;9.310;2024-02-28T03:10:18;19.4;;;14.8;;
24867;SDS011;12941;48.698;9.310;2024-02-28T03:11:18;19.4;;;14.8;;
24867;SDS011;12941;48.698;9.310;2024-02-28T03:12:23;19.4;;;14.8;;
24867;SDS011;12941;48.698;9.310;2024-02-28T03:13:23;19.4;;;14.8;;
24867;SDS011;12941;48.698;9.310;2024-02-28T03:14:23;19.4;;;14.8;;
24867;SDS011;12941;48.698;9.310;2024-02-28T03:15:28;23.6;;;15.8;;
24867;SDS011;12941;48.698;9.310;2024-02-28T03:16:33;23.6;;;15.8;;
24867;SDS011;12941;48.698;9.310;2024-02-28T03:17:33;23.6;;;15.8;;
24867;SDS011;12941;48.698;9.310;2024-02-28T03:18:38;23.6;;;15.8;;
24867;SDS011;12941;48.698;9.310;2024-02-28T03:19:43;23.6;;;15.8;;
24867;SDS011;12941;48.698;9.310;2024-02-28T03:20:48;22.6;;;15.6;;
24867;SDS011;12941;48.698;9.310;2024-02-28T03:21:48;22.6;;;15.6;;
24867;SDS011;12941;48.698;9.310;2024-02-28T03:22:53;22.6;;;15.6;;
24867;SDS011;12941;48.698;9.310;2024-02-28T03:23:53;22.6;;;15.6;;
24867;SDS011;12941;48.698;9.310;2024-02-28T03:24:53;22.6;;;15.6;;
24867;SDS011;12941;48.698;9.310;2024-02-28T03:25:58;21.6;;;16.3;;
24867;SDS011;12941;48.698;9.310;2024-02-28T03:26:58;21.6;;;16.3;;
24867;SDS011;12941;48.698;9.310;2024-02-28T03:27:58;21.6;;;16.3;;
24867;SDS011;12941;48.698;9.310;2024-02-28T03:29:03;21.6;;;16.3;;
24867;SDS011;12941;48.698;9.310;2024-02-28T03:30:03;21.6;;;16.3;;
24867;SDS011;12941;48.698;9.310;2024-02-28T03:31:03;22.1;;;15.7;;
24867;SDS011;12941;48.698;9.310;2024-02-28T03:32:08;22.1;;;15.7;;
24867;SDS011;12941;48.698;9.310;2024-02-28T03:33:08;22.1;;;15.7;;
24867;SDS011;12941;48.698;9.310;2024-02-28T03:34:13;22.1;;;15.7;;
24867;SDS011;12941;48.698;9.310;2024-02-28T03:35:18;22.3;;;16.2;;
24867;SDS011;12941;48.698;9.310;2024-02-28T03:36:18;22.3;;;16.2;;
24867;SDS011;12941;48.698;9.310;2024-02-28T03:37:23;22.3;;;16.2;;
24867;SDS011;12941;48.698;9.310;2024-02-28T03:38:28;22.3;;;16.2;;
24867;SDS011;12941;48.698;9.310;2024-02-28T03:39:28;22.3;;;16.2;;
24867;SDS011;12941;48.698;9.310;2024-02-28T03:40:33;23.7;;;16.2;;
24867;SDS011;12941;48.698;9.310;2024-02-28T03:41:38;23.7;;;16.2;;
24867;SDS011;12941;48.698;9.310;2024-02-28T03:42:43;23.7;;;16.2;;
24867;SDS011;12941;48.698;9.310;2024-02-28T03:43:48;23.7;;;16.2;;
24867;SDS011;12941;48.698;9.310;2024-02-28T03:44:53;23.7;;;16.2;;
24867;SDS011;12941;48.698;9.310;2024-02-28T03:45:53;21.8;;;15.7;;
24867;SDS011;12941;48.698;9.310;2024-02-28T03:46:53;21.8;;;15.7;;
24867;SDS011;12941;48.698;9.310;2024-02-28T03:47:53;21.8;;;15.7;;
24867;SDS011;12941;48.698;9.310;2024-02-28T03:48:53;21.8;;;15.7;;
24867;SDS011;12941;48.698;9.310;2024-02-28T03:49:58;21.8;;;15.7;;
24867;SDS011;12941;48.698;9.310;2024-02-28T03:51:03;21.8;;;15.6;;
24867;SDS011;12941;48.698;9.310;2024-02-28T03:52:03;21.8;;;15.6;;
24867;SDS011;12941;48.698;9.310;2024-02-28T03:53:08;21.8;;;15.6;;
24867;SDS011;12941;48.698;9.310;2024-02-28T03:54:08;21.8;;;15.6;;
24867;SDS011;12941;48.698;9.310;2024-02-28T03:55:08;22.7;;;16;;
24867;SDS011;12941;48.698;9.310;2024-02-28T03:56:13;22.7;;;16;;
24867;SDS011;12941;48.698;9.310;2024-02-28T03:57:18;22.7;;;16;;
24867;SDS011;12941;48.698;9.310;2024-02-28T03:58:23;22.7;;;16;;
24867;SDS011;12941;48.698;9.310;2024-02-28T03:59:28;22.7;;;16;;
24867;SDS011;12941;48.698;9.310;2024-02-28T04:00:28;21.5;;;15.3;;
24867;SDS011;12941;48.698;9.310;2024-02-28T04:01:33;21.5;;;15.3;;
24867;SDS011;12941;48.698;9.310;2024-02-28T04:02:33;21.5;;;15.3;;
24867;SDS011;12941;48.698;9.310;2024-02-28T04:03:38;21.5;;;15.3;;
24867;SDS011;12941;48.698;9.310;2024-02-28T04:04:38;21.5;;;15.3;;
24867;SDS011;12941;48.698;9.310;2024-02-28T04:05:43;21;;;15.4;;
24867;SDS011;12941;48.698;9.310;2024-02-28T04:06:43;21;;;15.4;;
24867;SDS011;12941;48.698;9.310;2024-02-28T04:07:43;21;;;15.4;;
24867;SDS011;12941;48.698;9.310;2024-02-28T04:08:48;21;;;15.4;;
24867;SDS011;12941;48.698;9.310;2024-02-28T04:09:48;21;;;15.4;;
24867;SDS011;12941;48.698;9.310;2024-02-28T04:10:53;22.2;;;15.6;;
24867;SDS011;12941;48.698;9.310;2024-02-28T04:11:53;22.2;;;15.6;;
24867;SDS011;12941;48.698;9.310;2024-02-28T04:12:53;22.2;;;15.6;;
24867;SDS011;12941;48.698;9.310;2024-02-28T04:13:58;22.2;;;15.6;;
24867;SDS011;12941;48.698;9.310;2024-02-28T04:14:58;22.2;;;15.6;;
24867;SDS011;12941;48.698;9.310;2024-02-28T04:15:58;22;;;15.7;;
24867;SDS011;12941;48.698;9.310;2024-02-28T04:17:03;22;;;15.7;;
24867;SDS011;12941;48.698;9.310;2024-02-28T04:18:03;22;;;15.7;;
24867;SDS011;12941;48.698;9.310;2024-02-28T04:19:08;22;;;15.7;;
24867;SDS011;12941;48.698;9.310;2024-02-28T04:20:11;23.2;;;15.3;;
24867;SDS011;12941;48.698;9.310;2024-02-28T04:21:13;23.2;;;15.3;;
24867;SDS011;12941;48.698;9.310;2024-02-28T04:22:13;23.2;;;15.3;;
24867;SDS011;12941;48.698;9.310;2024-02-28T04:23:13;23.2;;;15.3;;
24867;SDS011;12941;48.698;9.310;2024-02-28T04:24:18;23.2;;;15.3;;
24867;SDS011;12941;48.698;9.310;2024-02-28T04:25:18;21.6;;;16.4;;
24867;SDS011;12941;48.698;9.310;2024-02-28T04:26:23;21.6;;;16.4;;
24867;SDS011;12941;48.698;9.310;2024-02-28T04:27:28;21.6;;;16.4;;
24867;SDS011;12941;48.698;9.310;2024-02-28T04:28:34;21.6;;;16.4;;
24867;SDS011;12941;48.698;9.310;2024-02-28T04:29:34;21.6;;;16.4;;
24867;SDS011;12941;48.698;9.310;2024-02-28T04:30:38;22.9;;;15.9;;
24867;SDS011;12941;48.698;9.310;2024-02-28T04:31:43;22.9;;;15.9;;
24867;SDS011;12941;48.698;9.310;2024-02-28T04:32:48;22.9;;;15.9;;
24867;SDS011;12941;48.698;9.310;2024-02-28T04:33:48;22.9;;;15.9;;
24867;SDS011;12941;48.698;9.310;2024-02-28T04:34:53;22.9;;;15.9;;
24867;SDS011;12941;48.698;9.310;2024-02-28T04:35:58;21.8;;;15.6;;
24867;SDS011;12941;48.698;9.310;2024-02-28T04:37:03;21.8;;;15.6;;
24867;SDS011;12941;48.698;9.310;2024-02-28T04:38:08;21.8;;;15.6;;
24867;SDS011;12941;48.698;9.310;2024-02-28T04:39:13;21.8;;;15.6;;
24867;SDS011;12941;48.698;9.310;2024-02-28T04:40:13;21.7;;;15.4;;
24867;SDS011;12941;48.698;9.310;2024-02-28T04:41:18;21.7;;;15.4;;
24867;SDS011;12941;48.698;9.310;2024-02-28T04:42:23;21.7;;;15.4;;
24867;SDS011;12941;48.698;9.310;2024-02-28T04:43:28;21.7;;;15.4;;
24867;SDS011;12941;48.698;9.310;2024-02-28T04:44:28;21.7;;;15.4;;
24867;SDS011;12941;48.698;9.310;2024-02-28T04:45:28;23.5;;;16.8;;
24867;SDS011;12941;48.698;9.310;2024-02-28T04:46:34;23.5;;;16.8;;
24867;SDS011;12941;48.698;9.310;2024-02-28T04:47:38;23.5;;;16.8;;
24867;SDS011;12941;48.698;9.310;2024-02-28T04:48:38;23.5;;;16.8;;
24867;SDS011;12941;48.698;9.310;2024-02-28T04:49:43;23.5;;;16.8;;
24867;SDS011;12941;48.698;9.310;2024-02-28T04:50:48;23.8;;;16.4;;
24867;SDS011;12941;48.698;9.310;2024-02-28T04:51:53;23.8;;;16.4;;
24867;SDS011;12941;48.698;9.310;2024-02-28T04:52:53;23.8;;;16.4;;
24867;SDS011;12941;48.698;9.310;2024-02-28T04:53:58;23.8;;;16.4;;
24867;SDS011;12941;48.698;9.310;2024-02-28T04:54:58;23.8;;;16.4;;
24867;SDS011;12941;48.698;9.310;2024-02-28T04:56:03;23.9;;;15.9;;
24867;SDS011;12941;48.698;9.310;2024-02-28T04:57:03;23.9;;;15.9;;
24867;SDS011;12941;48.698;9.310;2024-02-28T04:58:03;23.9;;;15.9;;
24867;SDS011;12941;48.698;9.310;2024-02-28T04:59:08;23.9;;;15.9;;
24867;SDS011;12941;48.698;9.310;2024-02-28T05:00:08;24;;;15.9;;
24867;SDS011;12941;48.698;9.310;2024-02-28T05:01:08;24.1;;;15.9;;
24867;SDS011;12941;48.698;9.310;2024-02-28T05:02:13;24.1;;;15.9;;
24867;SDS011;12941;48.698;9.310;2024-02-28T05:03:13;24.1;;;15.9;;
24867;SDS011;12941;48.698;9.310;2024-02-28T05:04:18;24.1;;;15.9;;
24867;SDS011;12941;48.698;9.310;2024-02-28T05:05:18;22.8;;;15.5;;
24867;SDS011;12941;48.698;9.310;2024-02-28T05:06:23;22.8;;;15.5;;
24867;SDS011;12941;48.698;9.310;2024-02-28T05:07:28;22.8;;;15.5;;
24867;SDS011;12941;48.698;9.310;2024-02-28T05:08:28;22.8;;;15.5;;
24867;SDS011;12941;48.698;9.310;2024-02-28T05:09:33;22.8;;;15.5;;
24867;SDS011;12941;48.698;9.310;2024-02-28T05:10:34;22.4;;;15.8;;
24867;SDS011;12941;48.698;9.310;2024-02-28T05:11:38;22.4;;;15.8;;
24867;SDS011;12941;48.698;9.310;2024-02-28T05:12:38;22.4;;;15.8;;
24867;SDS011;12941;48.698;9.310;2024-02-28T05:13:43;22.4;;;15.8;;
24867;SDS011;12941;48.698;9.310;2024-02-28T05:14:48;22.4;;;15.8;;
24867;SDS011;12941;48.698;9.310;2024-02-28T05:15:48;21.7;;;15.8;;
24867;SDS011;12941;48.698;9.310;2024-02-28T05:16:53;21.7;;;15.8;;
24867;SDS011;12941;48.698;9.310;2024-02-28T05:17:53;21.7;;;15.8;;
24867;SDS011;12941;48.698;9.310;2024-02-28T05:18:53;21.7;;;15.8;;
24867;SDS011;12941;48.698;9.310;2024-02-28T05:19:58;21.7;;;15.8;;
24867;SDS011;12941;48.698;9.310;2024-02-28T05:21:03;22;;;15.2;;
24867;SDS011;12941;48.698;9.310;2024-02-28T05:22:08;22;;;15.2;;
24867;SDS011;12941;48.698;9.310;2024-02-28T05:23:13;22;;;15.2;;
24867;SDS011;12941;48.698;9.310;2024-02-28T05:24:18;22;;;15.2;;
24867;SDS011;12941;48.698;9.310;2024-02-28T05:25:18;21.7;;;15.1;;
24867;SDS011;12941;48.698;9.310;2024-02-28T05:26:23;21.7;;;15.1;;
24867;SDS011;12941;48.698;9.310;2024-02-28T05:27:28;21.7;;;15.1;;
24867;SDS011;12941;48.698;9.310;2024-02-28T05:28:28;21.7;;;15.1;;
24867;SDS011;12941;48.698;9.310;2024-02-28T05:29:34;21.7;;;15.1;;
24867;SDS011;12941;48.698;9.310;2024-02-28T05:30:35;23;;;15.3;;
24867;SDS011;12941;48.698;9.310;2024-02-28T05:31:38;23;;;15.3;;
24867;SDS011;12941;48.698;9.310;2024-02-28T05:32:38;23;;;15.3;;
24867;SDS011;12941;48.698;9.310;2024-02-28T05:33:43;23;;;15.3;;
24867;SDS011;12941;48.698;9.310;2024-02-28T05:34:48;23;;;15.3;;
24867;SDS011;12941;48.698;9.310;2024-02-28T05:35:48;21.8;;;15.5;;
24867;SDS011;12941;48.698;9.310;2024-02-28T05:36:48;21.8;;;15.5;;
24867;SDS011;12941;48.698;9.310;2024-02-28T05:37:52;21.8;;;15.5;;
24867;SDS011;12941;48.698;9.310;2024-02-28T05:38:54;21.8;;;15.5;;
24867;SDS011;12941;48.698;9.310;2024-02-28T05:39:53;21.8;;;15.5;;
24867;SDS011;12941;48.698;9.310;2024-02-28T05:40:54;20.7;;;14.5;;
24867;SDS011;12941;48.698;9.310;2024-02-28T05:41:59;20.7;;;14.5;;
24867;SDS011;12941;48.698;9.310;2024-02-28T05:42:59;20.7;;;14.5;;
24867;SDS011;12941;48.698;9.310;2024-02-28T05:44:03;20.7;;;14.5;;
24867;SDS011;12941;48.698;9.310;2024-02-28T05:45:09;21.5;;;15.2;;
24867;SDS011;12941;48.698;9.310;2024-02-28T05:46:14;21.8;;;15.3;;
24867;SDS011;12941;48.698;9.310;2024-02-28T05:47:14;21.8;;;15.3;;
24867;SDS011;12941;48.698;9.310;2024-02-28T05:48:14;21.8;;;15.3;;
24867;SDS011;12941;48.698;9.310;2024-02-28T05:49:14;21.8;;;15.3;;
24867;SDS011;12941;48.698;9.310;2024-02-28T05:50:14;18.6;;;14.2;;
24867;SDS011;12941;48.698;9.310;2024-02-28T05:51:19;18.6;;;14.2;;
24867;SDS011;12941;48.698;9.310;2024-02-28T05:52:24;18.6;;;14.2;;
24867;SDS011;12941;48.698;9.310;2024-02-28T05:53:25;18.6;;;14.2;;
24867;SDS011;12941;48.698;9.310;2024-02-28T05:54:25;18.6;;;14.2;;
24867;SDS011;12941;48.698;9.310;2024-02-28T05:55:30;21.7;;;14.8;;
24867;SDS011;12941;48.698;9.310;2024-02-28T05:56:35;21.7;;;14.8;;
24867;SDS011;12941;48.698;9.310;2024-02-28T05:57:40;21.7;;;14.8;;
24867;SDS011;12941;48.698;9.310;2024-02-28T05:58:40;21.7;;;14.8;;
24867;SDS011;12941;48.698;9.310;2024-02-28T05:59:45;21.7;;;14.8;;
24867;SDS011;12941;48.698;9.310;2024-02-28T06:00:45;19;;;13.9;;
24867;SDS011;12941;48.698;9.310;2024-02-28T06:01:45;19;;;13.9;;
24867;SDS011;12941;48.698;9.310;2024-02-28T06:02:50;19;;;13.9;;
24867;SDS011;12941;48.698;9.310;2024-02-28T06:03:50;19;;;13.9;;
24867;SDS011;12941;48.698;9.310;2024-02-28T06:04:55;19;;;13.9;;
24867;SDS011;12941;48.698;9.310;2024-02-28T06:05:55;20.9;;;13.9;;
24867;SDS011;12941;48.698;9.310;2024-02-28T06:07:00;20.9;;;13.9;;
24867;SDS011;12941;48.698;9.310;2024-02-28T06:08:00;20.9;;;13.9;;
24867;SDS011;12941;48.698;9.310;2024-02-28T06:09:00;20.9;;;13.9;;
24867;SDS011;12941;48.698;9.310;2024-02-28T06:10:05;20.9;;;13.9;;
24867;SDS011;12941;48.698;9.310;2024-02-28T06:11:05;20.7;;;14.9;;
24867;SDS011;12941;48.698;9.310;2024-02-28T06:12:05;20.7;;;14.9;;
24867;SDS011;12941;48.698;9.310;2024-02-28T06:13:10;20.7;;;14.9;;
24867;SDS011;12941;48.698;9.310;2024-02-28T06:14:15;20.7;;;14.9;;
24867;SDS011;12941;48.698;9.310;2024-02-28T06:15:15;19.8;;;13.8;;
24867;SDS011;12941;48.698;9.310;2024-02-28T06:16:15;19.8;;;13.8;;
24867;SDS011;12941;48.698;9.310;2024-02-28T06:17:20;19.8;;;13.8;;
24867;SDS011;12941;48.698;9.310;2024-02-28T06:18:20;19.8;;;13.8;;